Time;durP1;ratioP1;P1;durP2;ratioP2;P2;SDS_P1;SDS_P2;PMS_P1;PMS_P2;Temp;Humidity;BMP_temperature;BMP_pressure;BME280_temperature;BME280_humidity;BME280_pressure;Samples;Min_cycle;Max_cycle;Signal;HPM_P1;HPM_P2
2022/12/29 00:03:47;;;;;;;1999.90;999.90;;;;;;;9.96;86.15;98684.31;8368587;28;20060;-80
2022/12/29 00:07:48;;;;;;;1999.90;999.90;;;;;;;10.02;85.22;98684.22;8396297;28;20048;-83
2022/12/29 00:11:50;;;;;;;1999.90;999.90;;;;;;;10.03;85.69;98692.84;8399020;28;20048;-80
2022/12/29 00:15:51;;;;;;;1999.90;999.90;;;;;;;10.04;85.80;98685.06;8395720;28;20051;-81
2022/12/29 00:37:06;;;;;;;1999.90;999.90;;;;;;;10.08;86.89;98671.19;8184569;29;20458;-85
2022/12/29 00:45:27;;;;;;;1999.90;999.90;;;;;;;10.08;87.87;98675.53;8204440;28;20151;-80
2022/12/29 00:49:32;;;;;;;1999.90;999.90;;;;;;;9.99;89.08;98661.78;8191534;29;20130;-81
2022/12/29 00:53:33;;;;;;;1999.90;999.90;;;;;;;9.92;90.66;98665.34;8195623;29;20520;-79
2022/12/29 00:57:35;;;;;;;1999.90;999.90;;;;;;;9.79;92.52;98642.19;8196262;28;20071;-80
2022/12/29 01:01:37;;;;;;;1999.90;999.90;;;;;;;9.73;93.31;98650.06;8194914;28;20058;-78
2022/12/29 01:05:38;;;;;;;1999.90;999.90;;;;;;;9.74;94.05;98673.38;8196433;28;20039;-79
2022/12/29 01:14:00;;;;;;;1999.90;999.90;;;;;;;9.73;94.21;98663.03;8190333;29;20106;-78
2022/12/29 01:18:01;;;;;;;1999.90;999.90;;;;;;;9.73;93.81;98648.31;8200193;28;20118;-80
2022/12/29 01:22:03;;;;;;;1999.90;999.90;;;;;;;9.73;94.53;98657.84;8206418;28;20101;-80
2022/12/29 01:26:09;;;;;;;1999.90;999.90;;;;;;;9.77;94.28;98639.63;8194074;29;20099;-80
2022/12/29 01:30:11;;;;;;;1999.90;999.90;;;;;;;9.78;93.91;98623.19;8176943;29;20142;-80
2022/12/29 01:34:12;;;;;;;1999.90;999.90;;;;;;;9.79;93.45;98622.31;8182876;28;20051;-79
2022/12/29 01:38:14;;;;;;;1999.90;999.90;;;;;;;9.82;93.00;98631.78;8203166;28;20043;-79
2022/12/29 01:42:17;;;;;;;1999.90;999.90;;;;;;;9.87;92.01;98622.19;8195759;29;20483;-81
2022/12/29 01:46:29;;;;;;;1999.90;999.90;;;;;;;9.90;91.45;98624.78;8181378;28;20051;-81
2022/12/29 01:50:40;;;;;;;1999.90;999.90;;;;;;;9.92;90.88;98626.44;8175115;29;20051;-82
2022/12/29 01:54:51;;;;;;;1999.90;999.90;;;;;;;9.97;90.64;98623.78;8179772;29;20691;-81
2022/12/29 01:59:05;;;;;;;1999.90;999.90;;;;;;;9.95;90.52;98633.34;8188088;28;20043;-81
2022/12/29 02:03:08;;;;;;;1999.90;999.90;;;;;;;9.98;89.83;98641.06;8173423;29;20813;-81
2022/12/29 02:07:21;;;;;;;1999.90;999.90;;;;;;;9.97;89.65;98629.84;8188959;29;20051;-81
2022/12/29 02:11:23;;;;;;;;;;;;;;;9.98;88.99;98636.72;8195367;28;20110;-83
2022/12/29 02:15:56;;;;;;;1999.90;999.90;;;;;;;9.99;88.79;98635.84;8184172;29;20029;-83
2022/12/29 02:20:15;;;;;;;1999.90;999.90;;;;;;;10.02;88.16;98621.97;8174088;29;20114;-82
2022/12/29 02:24:45;;;;;;;1999.90;999.90;;;;;;;10.02;87.60;98627.16;8180458;29;20859;-82
2022/12/29 02:28:55;;;;;;;1999.90;999.90;;;;;;;10.05;87.22;98601.19;8190917;29;20468;-83
2022/12/29 02:33:13;;;;;;;1999.90;999.90;;;;;;;10.04;87.06;98616.75;8197068;29;20495;-83
2022/12/29 02:37:26;;;;;;;1999.90;999.90;;;;;;;10.03;86.97;98600.34;8197434;29;20051;-86
2022/12/29 02:41:52;;;;;;;1999.90;999.90;;;;;;;9.98;86.63;98569.31;8198914;29;20134;-82
2022/12/29 02:46:03;;;;;;;1999.90;999.90;;;;;;;10.04;85.67;98575.28;8210054;28;20055;-82
2022/12/29 02:50:20;;;;;;;1999.90;999.90;;;;;;;10.04;84.75;98563.16;8188831;29;20114;-82
2022/12/29 02:54:41;;;;;;;1999.90;999.90;;;;;;;10.07;83.50;98557.09;8197188;28;20139;-82
2022/12/29 02:58:42;;;;;;;1999.90;999.90;;;;;;;10.13;83.66;98549.19;8235171;28;20047;-84
2022/12/29 03:03:20;;;;;;;1999.90;999.90;;;;;;;10.14;83.25;98567.34;8214542;28;20039;-83
2022/12/29 03:07:56;;;;;;;1999.90;999.90;;;;;;;10.19;83.19;98565.50;8178275;29;20094;-86
2022/12/29 03:16:57;;;;;;;1999.90;999.90;;;;;;;10.19;82.58;98575.88;8221437;28;20059;-84
2022/12/29 03:21:07;;;;;;;1999.90;999.90;;;;;;;10.10;83.93;98568.28;8224771;29;20062;-83
2022/12/29 03:25:17;;;;;;;1999.90;999.90;;;;;;;10.05;84.80;98569.19;8208839;29;20047;-83
2022/12/29 03:29:20;;;;;;;1999.90;999.90;;;;;;;9.97;85.37;98558.97;8227132;29;20051;-83
2022/12/29 03:33:25;;;;;;;1999.90;999.90;;;;;;;9.96;85.47;98560.69;8223703;28;20038;-86
2022/12/29 03:37:33;;;;;;;1999.90;999.90;;;;;;;9.98;84.76;98551.16;8241644;28;20050;-84
2022/12/29 03:41:36;;;;;;;1999.90;999.90;;;;;;;10.02;84.53;98546.75;8252792;28;20073;-85
2022/12/29 03:45:38;;;;;;;;;;;;;;;10.00;84.87;98543.34;8243415;28;20051;-84
2022/12/29 03:49:39;;;;;;;1999.90;999.90;;;;;;;10.02;84.35;98553.69;8244545;28;19932;-85
2022/12/29 03:53:41;;;;;;;1999.90;999.90;;;;;;;10.05;83.94;98551.91;8259363;28;20046;-87
2022/12/29 03:57:42;;;;;;;1999.90;999.90;;;;;;;10.10;83.95;98557.03;8247092;28;20061;-83
2022/12/29 04:01:44;;;;;;;1999.90;999.90;;;;;;;10.10;84.42;98557.91;8267121;28;20496;-83
2022/12/29 04:05:45;;;;;;;1999.90;999.90;;;;;;;10.09;83.75;98547.53;8244268;28;20065;-86
2022/12/29 04:09:47;;;;;;;1999.90;999.90;;;;;;;10.12;83.82;98557.88;8218337;28;20214;-89
2022/12/29 04:13:48;;;;;;;1999.90;999.90;;;;;;;10.10;83.83;98544.91;8262963;28;20051;-87
2022/12/29 04:17:50;;;;;;;1999.90;999.90;;;;;;;10.09;83.22;98538.03;8241074;28;20043;-84
2022/12/29 04:21:51;;;;;;;1999.90;999.90;;;;;;;10.09;83.01;98535.44;8242825;28;20046;-86
2022/12/29 04:25:53;;;;;;;1999.90;999.90;;;;;;;10.08;83.49;98545.84;8242390;28;20030;-86
2022/12/29 04:29:54;;;;;;;1999.90;999.90;;;;;;;10.09;83.28;98551.00;8243525;28;20043;-82
2022/12/29 04:33:57;;;;;;;1999.90;999.90;;;;;;;10.14;82.85;98549.16;8242177;28;20196;-86
2022/12/29 04:37:58;;;;;;;1999.90;999.90;;;;;;;10.14;83.09;98540.53;8246244;28;20046;-86
2022/12/29 04:42:00;;;;;;;1999.90;999.90;;;;;;;10.11;83.72;98543.19;8247818;28;20047;-84
2022/12/29 04:46:01;;;;;;;1999.90;999.90;;;;;;;10.10;84.30;98536.28;8262841;28;20039;-83
2022/12/29 04:50:03;;;;;;;1999.90;999.90;;;;;;;10.05;85.34;98535.47;8260345;28;20033;-86
2022/12/29 04:54:05;;;;;;;1999.90;999.90;;;;;;;9.99;86.41;98529.53;8259031;28;20054;-82
2022/12/29 04:58:12;;;;;;;1999.90;999.90;;;;;;;9.96;87.45;98531.31;8264936;28;20030;-83
2022/12/29 05:02:22;;;;;;;1999.90;999.90;;;;;;;9.87;88.17;98528.84;8228990;28;20058;-83
2022/12/29 05:06:24;;;;;;;1999.90;999.90;;;;;;;9.83;88.86;98525.44;8264743;28;20046;-86
2022/12/29 05:10:26;;;;;;;1999.90;999.90;;;;;;;9.80;88.63;98532.44;8265883;28;20055;-86
2022/12/29 05:14:27;;;;;;;1999.90;999.90;;;;;;;9.80;88.37;98517.72;8248544;28;20056;-85
2022/12/29 05:18:29;;;;;;;1999.90;999.90;;;;;;;9.80;87.71;98512.53;8274401;28;20047;-86
2022/12/29 05:22:30;;;;;;;1999.90;999.90;;;;;;;9.85;87.14;98525.44;8247215;28;20034;-85
2022/12/29 05:26:31;;;;;;;1999.90;999.90;;;;;;;9.89;85.79;98507.22;8266991;28;20030;-83
2022/12/29 05:30:33;;;;;;;1999.90;999.90;;;;;;;9.90;85.37;98521.91;8258477;28;20060;-89
2022/12/29 05:34:34;;;;;;;1999.90;999.90;;;;;;;9.93;83.83;98515.81;8264358;28;20132;-83
2022/12/29 05:38:36;;;;;;;1999.90;999.90;;;;;;;9.98;83.35;98503.63;8227155;28;20050;-88
2022/12/29 05:42:37;;;;;;;1999.90;999.90;;;;;;;10.02;81.61;98505.28;8251790;28;20066;-86
2022/12/29 05:46:39;;;;;;;1999.90;999.90;;;;;;;10.10;81.43;98490.47;8244588;28;20054;-83
2022/12/29 05:50:41;;;;;;;1999.90;999.90;;;;;;;10.17;80.37;98496.38;8243939;28;20043;-84
2022/12/29 05:54:42;;;;;;;1999.90;999.90;;;;;;;10.18;80.53;98503.28;8264572;28;20098;-88
2022/12/29 05:58:44;;;;;;;1999.90;999.90;;;;;;;10.24;79.12;98492.84;8252652;28;20042;-86
2022/12/29 06:02:45;;;;;;;1999.90;999.90;;;;;;;10.28;78.97;98503.13;8247528;28;20059;-92
2022/12/29 06:06:47;;;;;;;1999.90;999.90;;;;;;;10.31;78.92;98497.03;8252373;28;20057;-88
2022/12/29 06:10:49;;;;;;;1999.90;999.90;;;;;;;10.37;78.77;98488.28;8266680;28;20043;-84
2022/12/29 06:14:50;;;;;;;1999.90;999.90;;;;;;;10.38;77.92;98502.97;8254202;28;20026;-91
2022/12/29 06:18:52;;;;;;;1999.90;999.90;;;;;;;10.43;77.90;98493.38;8230189;28;20047;-87
2022/12/29 06:22:53;;;;;;;1999.90;999.90;;;;;;;10.45;77.92;98510.63;8255789;28;20049;-91
2022/12/29 06:26:55;;;;;;;1999.90;999.90;;;;;;;10.48;77.64;98512.31;8250341;28;20061;-87
2022/12/29 06:30:57;;;;;;;1999.90;999.90;;;;;;;10.52;77.04;98506.16;8246363;28;20126;-89
2022/12/29 06:34:59;;;;;;;1999.90;999.90;;;;;;;10.55;77.22;98516.50;8230557;28;20044;-90
2022/12/29 06:39:00;;;;;;;1999.90;999.90;;;;;;;10.55;77.53;98532.91;8208278;28;20023;-90
2022/12/29 06:43:02;;;;;;;1999.90;999.90;;;;;;;10.51;77.84;98523.47;8266952;28;20029;-88
2022/12/29 06:47:03;;;;;;;1999.90;999.90;;;;;;;10.53;77.90;98524.31;8268455;28;20058;-91
2022/12/29 06:51:04;;;;;;;1999.90;999.90;;;;;;;10.50;78.30;98513.97;8258070;28;20373;-88
2022/12/29 06:55:06;;;;;;;1999.90;999.90;;;;;;;10.51;77.96;98528.66;8243896;28;20045;-89
2022/12/29 06:59:09;;;;;;;1999.90;999.90;;;;;;;10.48;78.85;98538.25;8260647;28;20019;-91
2022/12/29 07:03:10;;;;;;;;;;;;;;;10.48;79.25;98557.28;8277078;28;20282;-92
2022/12/29 07:07:12;;;;;;;1999.90;999.90;;;;;;;10.46;79.15;98550.41;8245923;28;19914;-92
2022/12/29 07:11:14;;;;;;;1999.90;999.90;;;;;;;10.43;79.33;98558.25;8262866;28;20026;-91
2022/12/29 07:15:17;;;;;;;1999.90;999.90;;;;;;;10.46;78.92;98563.38;8225499;29;20026;-90
2022/12/29 07:19:19;;;;;;;1999.90;999.90;;;;;;;10.50;79.36;98567.63;8235696;28;20066;-90
2022/12/29 07:23:20;;;;;;;1999.90;999.90;;;;;;;10.45;80.56;98575.50;8237917;28;20058;-85
2022/12/29 07:27:22;;;;;;;1999.90;999.90;;;;;;;10.37;82.14;98572.16;8248652;28;20019;-93
2022/12/29 07:31:23;;;;;;;1999.90;999.90;;;;;;;10.32;82.68;98586.09;8248738;28;20110;-84
2022/12/29 07:35:25;;;;;;;1999.90;999.90;;;;;;;10.30;82.58;98580.94;8231006;28;20063;-86
2022/12/29 07:39:27;;;;;;;1999.90;999.90;;;;;;;10.32;82.34;98591.31;8237564;28;20043;-90
2022/12/29 07:53:50;;;;;;;1999.90;999.90;;;;;;;10.42;83.19;98598.91;9705898;23;20051;-91
2022/12/29 07:57:55;;;;;;;1999.90;999.90;;;;;;;10.36;85.33;98616.31;8274878;23;20040;-84
2022/12/29 08:01:57;;;;;;;1999.90;999.90;;;;;;;10.29;86.44;98610.38;8231502;28;20024;-85
2022/12/29 08:05:59;;;;;;;1999.90;999.90;;;;;;;10.25;87.03;98606.97;8232106;28;20051;-84
2022/12/29 08:10:01;;;;;;;1999.90;999.90;;;;;;;10.25;86.93;98608.72;8231925;28;20274;-83
2022/12/29 08:14:03;;;;;;;1999.90;999.90;;;;;;;10.23;87.36;98618.22;8216100;28;20035;-87
2022/12/29 08:18:05;;;;;;;1999.90;999.90;;;;;;;10.25;87.20;98625.13;8214417;28;20039;-88
2022/12/29 08:22:07;;;;;;;1999.90;999.90;;;;;;;10.24;86.49;98633.81;8230323;28;20042;-91
2022/12/29 08:26:09;;;;;;;1999.90;999.90;;;;;;;10.29;86.33;98637.19;8214375;28;20031;-86
2022/12/29 08:30:11;;;;;;;1999.90;999.90;;;;;;;10.32;86.58;98641.47;8214940;28;20028;-86
2022/12/29 08:34:13;;;;;;;1999.90;999.90;;;;;;;10.32;87.94;98632.81;8208852;28;20048;-81
2022/12/29 08:38:15;;;;;;;1999.90;999.90;;;;;;;10.15;90.54;98654.66;8193877;29;20044;-82
2022/12/29 08:42:17;;;;;;;1999.90;999.90;;;;;;;10.09;92.02;98657.34;8184962;29;20078;-85
2022/12/29 08:46:19;;;;;;;1999.90;999.90;;;;;;;10.09;92.82;98653.88;8172488;29;20043;-83
2022/12/29 08:50:20;;;;;;;1999.90;999.90;;;;;;;10.06;92.67;98657.38;8175240;29;20043;-81
2022/12/29 08:54:22;;;;;;;1999.90;999.90;;;;;;;10.06;92.53;98665.16;8190280;28;20047;-85
2022/12/29 08:58:25;;;;;;;1999.90;999.90;;;;;;;10.15;91.95;98653.78;8169379;29;20048;-84
2022/12/29 09:02:26;;;;;;;1999.90;999.90;;;;;;;10.28;91.03;98660.56;8182193;28;20036;-87
2022/12/29 09:06:31;;;;;;;1999.90;999.90;;;;;;;10.54;90.44;98654.94;8172832;28;20043;-81
2022/12/29 09:10:40;;;;;;;1999.90;999.90;;;;;;;10.76;88.63;98658.88;8154943;29;20063;-79
2022/12/29 09:14:44;;;;;;;1999.90;999.90;;;;;;;10.74;87.34;98663.25;8148374;29;20064;-89
2022/12/29 09:18:45;;;;;;;1999.90;999.90;;;;;;;10.68;87.70;98670.31;8171561;29;20036;-86
2022/12/29 09:22:49;;;;;;;1999.90;999.90;;;;;;;10.56;87.69;98679.13;8142771;29;20075;-83
2022/12/29 09:26:51;;;;;;;1999.90;999.90;;;;;;;10.54;87.89;98680.91;8160715;29;20049;-81
2022/12/29 09:30:53;;;;;;;1999.90;999.90;;;;;;;10.55;88.39;98688.66;8140735;29;20048;-85
2022/12/29 09:34:55;;;;;;;1999.90;999.90;;;;;;;10.59;87.94;98692.06;8174642;29;20028;-85
2022/12/29 09:38:56;;;;;;;1999.90;999.90;;;;;;;10.58;87.19;98700.72;8168175;29;20036;-89
2022/12/29 09:43:17;;;;;;;1999.90;999.90;;;;;;;10.55;87.11;98713.75;8149717;29;20063;-84
2022/12/29 09:47:20;;;;;;;1999.90;999.90;;;;;;;10.51;88.55;98709.50;8143477;29;20067;-89
2022/12/29 09:51:23;;;;;;;1999.90;999.90;;;;;;;10.51;87.75;98717.28;8158543;29;20942;-84
2022/12/29 09:56:05;;;;;;;1999.90;999.90;;;;;;;10.48;87.58;98720.78;8171857;29;20059;-89
2022/12/29 10:00:14;;;;;;;1999.90;999.90;;;;;;;10.34;87.68;98727.91;8115616;29;20100;-87
2022/12/29 10:04:16;;;;;;;1999.90;999.90;;;;;;;10.20;89.08;98730.66;8079813;29;20056;-75
2022/12/29 10:08:40;;;;;;;1999.90;999.90;;;;;;;10.06;91.73;98724.81;8091353;29;20053;-77
2022/12/29 10:13:04;;;;;;;1999.90;999.90;;;;;;;9.92;92.25;98729.31;8075312;29;20200;-77
2022/12/29 10:17:29;;;;;;;1999.90;999.90;;;;;;;9.91;91.81;98730.19;8072096;29;20812;-77
2022/12/29 10:21:44;;;;;;;1999.90;999.90;;;;;;;9.89;91.79;98722.44;8070021;29;20056;-76
2022/12/29 10:25:46;;;;;;;1999.90;999.90;;;;;;;9.90;93.03;98738.88;8087325;29;20052;-77
2022/12/29 10:29:53;;;;;;;1999.90;999.90;;;;;;;9.92;92.91;98730.19;8098942;29;20048;-79
2022/12/29 10:34:05;;;;;;;1999.90;999.90;;;;;;;9.97;92.79;98725.78;8139976;29;20099;-77
2022/12/29 10:38:15;;;;;;;1999.90;999.90;;;;;;;10.09;92.43;98721.31;8158975;29;20047;-77
2022/12/29 10:42:27;;;;;;;1999.90;999.90;;;;;;;10.23;91.38;98707.34;8144324;29;20126;-77
2022/12/29 10:46:36;;;;;;;1999.90;999.90;;;;;;;10.35;89.06;98705.41;8137014;29;20066;-77
2022/12/29 10:50:42;;;;;;;1999.90;999.90;;;;;;;10.48;88.69;98704.38;8156066;29;20147;-81
2022/12/29 10:54:58;;;;;;;1999.90;999.90;;;;;;;10.57;87.77;98704.22;8161240;29;20404;-77
2022/12/29 10:59:10;;;;;;;1999.90;999.90;;;;;;;10.69;87.59;98696.25;8159213;29;20522;-77
2022/12/29 11:03:30;;;;;;;1999.90;999.90;;;;;;;10.82;87.00;98702.97;8149054;29;20548;-76
2022/12/29 11:07:33;;;;;;;1999.90;999.90;;;;;;;10.89;84.87;98701.97;8159216;29;20071;-77
2022/12/29 11:11:36;;;;;;;1999.90;999.90;;;;;;;10.90;83.57;98698.47;8161209;29;20079;-77
2022/12/29 11:15:45;;;;;;;1999.90;999.90;;;;;;;10.98;82.19;98697.50;8154647;29;20139;-78
2022/12/29 11:19:47;;;;;;;1999.90;999.90;;;;;;;11.07;82.72;98702.53;8145019;29;20062;-76
2022/12/29 11:23:56;;;;;;;1999.90;999.90;;;;;;;11.13;81.12;98703.31;8162221;29;20075;-78
2022/12/29 11:28:03;;;;;;;1999.90;999.90;;;;;;;11.10;80.91;98711.13;8145631;29;20803;-78
2022/12/29 11:32:21;;;;;;;1999.90;999.90;;;;;;;11.05;81.25;98715.53;8133151;29;20115;-77
2022/12/29 11:36:29;;;;;;;1999.90;999.90;;;;;;;10.96;80.91;98722.66;8148620;29;20102;-77
2022/12/29 11:40:37;;;;;;;1999.90;999.90;;;;;;;10.89;80.96;98716.69;8164968;29;20040;-77
2022/12/29 11:44:44;;;;;;;1999.90;999.90;;;;;;;10.84;80.64;98721.97;8150789;29;20427;-78
2022/12/29 11:48:47;;;;;;;1999.90;999.90;;;;;;;10.78;80.67;98727.28;8138167;29;20087;-77
2022/12/29 11:52:57;;;;;;;1999.90;999.90;;;;;;;10.75;81.39;98731.63;8142652;29;20126;-78
2022/12/29 11:57:13;;;;;;;1999.90;999.90;;;;;;;10.77;82.16;98711.69;8128251;29;20552;-78
2022/12/29 12:01:23;;;;;;;1999.90;999.90;;;;;;;10.81;80.93;98714.22;8124637;29;20056;-77
2022/12/29 12:05:31;;;;;;;1999.90;999.90;;;;;;;10.89;79.95;98698.50;8113013;29;20115;-76
2022/12/29 12:09:51;;;;;;;1999.90;999.90;;;;;;;10.96;80.56;98694.94;8131530;29;20044;-79
2022/12/29 12:14:23;;;;;;;1999.90;999.90;;;;;;;10.94;78.32;98690.63;8132036;29;20135;-77
2022/12/29 12:18:38;;;;;;;1999.90;999.90;;;;;;;10.95;78.28;98692.34;8122041;29;20064;-77
2022/12/29 12:23:08;;;;;;;1999.90;999.90;;;;;;;10.93;78.21;98699.31;8130194;29;20135;-78
2022/12/29 12:27:40;;;;;;;1999.90;999.90;;;;;;;10.88;78.57;98701.97;8105154;29;20161;-77
2022/12/29 12:32:12;;;;;;;1999.90;999.90;;;;;;;10.86;77.25;98690.78;8089620;29;20052;-78
2022/12/29 12:36:42;;;;;;;1999.90;999.90;;;;;;;10.83;77.28;98694.28;8115099;29;20072;-76
2022/12/29 12:40:50;;;;;;;1999.90;999.90;;;;;;;10.83;78.60;98703.81;8083484;29;20059;-78
2022/12/29 12:45:20;;;;;;;1999.90;999.90;;;;;;;10.79;78.51;98695.22;8116587;29;20056;-77
2022/12/29 12:49:52;;;;;;;1999.90;999.90;;;;;;;10.86;78.81;98695.97;8113877;29;20139;-77
2022/12/29 12:53:56;;;;;;;1999.90;999.90;;;;;;;10.89;79.12;98699.38;8130311;29;20103;-77
2022/12/29 12:58:20;;;;;;;1999.90;999.90;;;;;;;10.86;79.55;98683.84;8155390;29;20655;-76
2022/12/29 13:02:43;;;;;;;1999.90;999.90;;;;;;;10.85;79.58;98691.66;8154043;29;20142;-76
2022/12/29 13:06:57;;;;;;;1999.90;999.90;;;;;;;10.84;79.58;98698.59;8161583;29;20103;-77
2022/12/29 13:11:20;;;;;;;1999.90;999.90;;;;;;;10.78;79.79;98690.06;8164467;29;20050;-77
2022/12/29 13:16:00;;;;;;;1999.90;999.90;;;;;;;10.78;80.68;98701.31;8156655;29;20454;-77
2022/12/29 13:20:39;;;;;;;1999.90;999.90;;;;;;;10.70;79.39;98673.72;8208483;28;20035;-85
2022/12/29 13:25:01;;;;;;;1999.90;999.90;;;;;;;10.62;80.27;98689.44;8200307;28;20047;-90
2022/12/29 13:29:23;;;;;;;1999.90;999.90;;;;;;;10.61;81.92;98692.91;8185820;28;20050;-90
2022/12/29 13:33:56;;;;;;;1999.90;999.90;;;;;;;10.59;82.47;98674.78;8201589;29;20047;-92
2022/12/29 13:38:12;;;;;;;1999.90;999.90;;;;;;;10.54;82.25;98681.75;8197008;28;20091;-90
2022/12/29 13:42:13;;;;;;;1999.90;999.90;;;;;;;10.58;82.27;98677.38;8182063;29;20103;-93
2022/12/29 13:46:40;;;;;;;1999.90;999.90;;;;;;;10.68;81.32;98689.34;8186760;28;20020;-91
2022/12/29 13:50:48;;;;;;;1999.90;999.90;;;;;;;10.74;80.55;98703.94;8213818;28;20095;-90
2022/12/29 13:55:33;;;;;;;1999.90;999.90;;;;;;;10.83;80.63;98716.78;8206779;28;20043;-89
2022/12/29 13:59:54;;;;;;;1999.90;999.90;;;;;;;10.79;78.01;98712.53;8192533;28;20055;-91
2022/12/29 14:04:00;;;;;;;1999.90;999.90;;;;;;;10.77;78.66;98709.09;8208127;28;20047;-90
2022/12/29 14:08:06;;;;;;;1999.90;999.90;;;;;;;10.67;79.30;98723.13;8192852;28;20060;-92
2022/12/29 14:12:32;;;;;;;1999.90;999.90;;;;;;;10.51;79.37;98728.53;8203730;29;20035;-90
2022/12/29 14:16:34;;;;;;;1999.90;999.90;;;;;;;10.41;80.00;98731.28;8190786;29;20047;-91
2022/12/29 14:20:37;;;;;;;1999.90;999.90;;;;;;;10.33;80.34;98734.00;8200898;29;20048;-89
2022/12/29 14:24:45;;;;;;;1999.90;999.90;;;;;;;10.28;79.90;98733.19;8189502;28;20043;-87
2022/12/29 14:28:48;;;;;;;1999.90;999.90;;;;;;;10.20;80.46;98725.47;8210346;29;20043;-87
2022/12/29 14:33:14;;;;;;;1999.90;999.90;;;;;;;10.23;80.97;98734.97;8199280;28;20055;-91
2022/12/29 14:37:28;;;;;;;1999.90;999.90;;;;;;;10.17;80.59;98738.50;8216579;28;20174;-91
2022/12/29 14:41:39;;;;;;;1999.90;999.90;;;;;;;10.19;80.72;98736.72;8209188;28;20038;-86
2022/12/29 15:02:01;;;;;;;1999.90;999.90;;;;;;;10.03;82.68;98755.97;9981876;23;20029;-88
2022/12/29 15:06:18;;;;;;;1999.90;999.90;;;;;;;10.00;83.35;98771.56;8246694;28;20023;-88
2022/12/29 15:10:23;;;;;;;1999.90;999.90;;;;;;;9.94;84.17;98767.31;8217780;28;20036;-91
2022/12/29 15:15:23;;;;;;;1999.90;999.90;;;;;;;9.91;84.39;98775.16;8246520;28;20035;-87
2022/12/29 15:19:27;;;;;;;1999.90;999.90;;;;;;;9.90;84.84;98782.94;8247688;28;20038;-88
2022/12/29 15:23:45;;;;;;;1999.90;999.90;;;;;;;9.85;85.03;98775.19;8232220;28;20031;-87
2022/12/29 15:27:59;;;;;;;1999.90;999.90;;;;;;;9.79;86.05;98774.41;8217340;28;20020;-89
2022/12/29 15:32:14;;;;;;;1999.90;999.90;;;;;;;9.74;85.66;98776.22;8232603;28;20030;-88
2022/12/29 15:36:38;;;;;;;1999.90;999.90;;;;;;;9.72;86.16;98794.38;8232989;28;20024;-87
2022/12/29 15:40:43;;;;;;;1999.90;999.90;;;;;;;9.69;86.12;98792.69;8232707;28;20055;-87
2022/12/29 15:44:46;;;;;;;1999.90;999.90;;;;;;;9.68;86.64;98785.75;8221740;29;20056;-82
2022/12/29 15:48:55;;;;;;;1999.90;999.90;;;;;;;9.67;86.46;98780.59;8217045;28;20077;-85
2022/12/29 15:52:58;;;;;;;1999.90;999.90;;;;;;;9.66;87.34;98782.31;8242370;28;20059;-82
2022/12/29 15:57:01;;;;;;;1999.90;999.90;;;;;;;9.63;87.20;98782.34;8181781;28;20066;-77
2022/12/29 16:01:03;;;;;;;1999.90;999.90;;;;;;;9.59;87.93;98772.03;8178377;28;20481;-76
2022/12/29 16:05:09;;;;;;;1999.90;999.90;;;;;;;9.57;87.40;98787.63;8182638;28;20064;-79
2022/12/29 16:09:32;;;;;;;1999.90;999.90;;;;;;;9.55;87.94;98797.13;8189689;28;20047;-76
2022/12/29 16:13:44;;;;;;;1999.90;999.90;;;;;;;9.44;88.02;98793.78;8178570;28;20062;-79
2022/12/29 16:17:50;;;;;;;1999.90;999.90;;;;;;;9.41;87.93;98796.41;8184058;28;20079;-76
2022/12/29 16:21:52;;;;;;;1999.90;999.90;;;;;;;9.38;87.55;98812.84;8185117;28;20083;-80
2022/12/29 16:25:57;;;;;;;1999.90;999.90;;;;;;;9.38;87.58;98802.47;8172561;28;20147;-78
2022/12/29 16:30:05;;;;;;;1999.90;999.90;;;;;;;9.39;87.66;98801.59;8188773;28;20126;-78
2022/12/29 16:34:29;;;;;;;1999.90;999.90;;;;;;;9.39;87.57;98795.56;8173903;28;20167;-77
2022/12/29 16:38:33;;;;;;;1999.90;999.90;;;;;;;9.38;87.25;98801.63;8162039;28;20039;-78
2022/12/29 16:42:46;;;;;;;1999.90;999.90;;;;;;;9.41;87.15;98804.19;8172905;28;20066;-78
2022/12/29 16:46:58;;;;;;;1999.90;999.90;;;;;;;9.39;87.32;98804.19;8162316;28;20066;-80
2022/12/29 16:51:11;;;;;;;1999.90;999.90;;;;;;;9.36;88.23;98791.28;8166997;28;20070;-78
2022/12/29 16:55:17;;;;;;;1999.90;999.90;;;;;;;9.34;87.82;98797.34;8185209;28;20054;-78
2022/12/29 16:59:39;;;;;;;1999.90;999.90;;;;;;;9.33;88.91;98798.19;8185834;28;20043;-79
2022/12/29 17:03:45;;;;;;;1999.90;999.90;;;;;;;9.28;89.18;98798.25;8155954;28;20216;-77
2022/12/29 17:07:48;;;;;;;1999.90;999.90;;;;;;;9.26;89.21;98806.91;8156357;29;20690;-78
2022/12/29 17:11:54;;;;;;;;;;;;;;;9.25;89.24;98805.19;8177275;28;20440;-77
2022/12/29 17:16:07;;;;;;;1999.90;999.90;;;;;;;9.19;89.89;98813.00;8159745;28;20358;-77
2022/12/29 17:20:26;;;;;;;1999.90;999.90;;;;;;;9.17;90.12;98817.34;8147532;28;20047;-78
2022/12/29 17:24:28;;;;;;;1999.90;999.90;;;;;;;9.15;90.53;98814.75;8179363;28;20461;-78
2022/12/29 17:28:31;;;;;;;1999.90;999.90;;;;;;;9.15;90.32;98819.06;8168347;28;20142;-77
2022/12/29 17:32:35;;;;;;;1999.90;999.90;;;;;;;9.14;90.21;98823.38;8153215;29;20275;-77
2022/12/29 17:36:36;;;;;;;1999.90;999.90;;;;;;;9.09;90.46;98822.56;8188487;28;20078;-80
2022/12/29 17:40:38;;;;;;;1999.90;999.90;;;;;;;9.10;91.22;98824.28;8178103;28;20044;-77
2022/12/29 17:44:41;;;;;;;1999.90;999.90;;;;;;;9.07;91.36;98826.91;8185822;28;20150;-80
2022/12/29 17:48:42;;;;;;;1999.90;999.90;;;;;;;9.05;91.50;98821.75;8159582;28;20055;-76
2022/12/29 17:53:04;;;;;;;1999.90;999.90;;;;;;;9.02;92.14;98824.38;8158925;28;20603;-76
2022/12/29 17:57:10;;;;;;;1999.90;999.90;;;;;;;8.99;91.76;98823.53;8153995;29;20086;-78
2022/12/29 18:01:12;;;;;;;1999.90;999.90;;;;;;;8.98;91.66;98824.41;8166562;28;20051;-77
2022/12/29 18:05:16;;;;;;;1999.90;999.90;;;;;;;8.96;91.44;98833.88;8168084;28;20074;-77
2022/12/29 18:09:19;;;;;;;1999.90;999.90;;;;;;;8.91;91.69;98839.09;8135946;29;20130;-77
2022/12/29 18:13:31;;;;;;;1999.90;999.90;;;;;;;8.89;91.69;98838.25;8155606;29;20163;-78
2022/12/29 18:17:46;;;;;;;1999.90;999.90;;;;;;;8.85;91.39;98853.81;8141098;29;20717;-76
2022/12/29 18:21:47;;;;;;;1999.90;999.90;;;;;;;8.85;91.60;98866.78;8139777;29;20058;-76
2022/12/29 18:25:59;;;;;;;1999.90;999.90;;;;;;;8.83;91.66;98856.44;8154949;29;20488;-78
2022/12/29 18:30:00;;;;;;;1999.90;999.90;;;;;;;8.81;91.49;98857.31;8159398;29;20054;-77
2022/12/29 18:34:11;;;;;;;;;;;;;;;8.80;90.58;98851.28;8141669;29;20059;-76
2022/12/29 18:38:12;;;;;;;1999.90;999.90;;;;;;;8.79;90.37;98859.88;8151638;29;19937;-77
2022/12/29 18:42:16;;;;;;;1999.90;999.90;;;;;;;8.78;90.20;98855.56;8150819;29;20058;-77
2022/12/29 18:46:18;;;;;;;1999.90;999.90;;;;;;;8.75;90.41;98855.59;8159517;28;20138;-78
2022/12/29 18:50:23;;;;;;;1999.90;999.90;;;;;;;8.71;90.24;98856.50;8149653;29;20051;-77
2022/12/29 18:54:29;;;;;;;1999.90;999.90;;;;;;;8.71;90.14;98859.06;8171671;28;20117;-76
2022/12/29 18:58:30;;;;;;;1999.90;999.90;;;;;;;8.69;90.07;98871.16;8169763;28;20040;-78
2022/12/29 19:02:35;;;;;;;1999.90;999.90;;;;;;;8.70;90.17;98881.50;8146678;29;20048;-77
2022/12/29 19:06:36;;;;;;;1999.90;999.90;;;;;;;8.71;90.14;98870.28;8143649;29;20068;-78
2022/12/29 19:10:39;;;;;;;1999.90;999.90;;;;;;;8.69;90.14;98866.84;8144036;29;20054;-79
2022/12/29 19:14:41;;;;;;;1999.90;999.90;;;;;;;8.72;89.72;98873.72;8137649;29;20764;-77
2022/12/29 19:18:42;;;;;;;1999.90;999.90;;;;;;;8.70;90.15;98876.34;8143677;29;20423;-77
2022/12/29 19:22:46;;;;;;;1999.90;999.90;;;;;;;8.70;89.68;98875.47;8144953;29;20056;-77
2022/12/29 19:26:48;;;;;;;1999.90;999.90;;;;;;;8.72;89.06;98876.31;8142206;29;20143;-76
2022/12/29 19:30:51;;;;;;;1999.90;999.90;;;;;;;8.72;89.14;98884.09;8140616;29;20076;-76